IBE107 EGLL-LEMD
Flight info
| Callsign | IBE107 |
|---|---|
| Flight time | 1h 53m |
| Altitude | 31000 |
| Route | GASGU N866 SAM M195 IBNID/N0472F330 M195 MARUK N621 LELNA DCT NOVAN DCT DELOG N864 NONTU |
| Aircraft | A346/H-SDE2E3FGHIJ3J4J5M1RWXY/LB1D1 |
Departure
| Time | 2026-05-07 16:29 |
|---|---|
| Airport | London Heathrow Airport (EGLL) |
Arrival
| Time | 2026-05-07 18:22 |
|---|---|
| Airport | Adolfo Suárez Madrid–Barajas Airport (LEMD) |
| Time | Latitude | Longitude | Altitude | Speed | Heading |
|---|---|---|---|---|---|
| 2026-05-07 15:52 | 51.47159 | -0.46199 | 97 ft | 0 kts | 56° |
| 2026-05-07 16:11 | 51.47157 | -0.46203 | 94 ft | 3 kts | 56° |
| 2026-05-07 16:11 | 51.47143 | -0.46237 | 97 ft | 2 kts | 56° |
| 2026-05-07 16:12 | 51.47129 | -0.46264 | 94 ft | 4 kts | 34° |
| 2026-05-07 16:12 | 51.47112 | -0.46274 | 96 ft | 4 kts | 356° |
| 2026-05-07 16:12 | 51.47092 | -0.46263 | 95 ft | 4 kts | 328° |
| 2026-05-07 16:12 | 51.47069 | -0.46238 | 95 ft | 4 kts | 325° |
| 2026-05-07 16:13 | 51.47061 | -0.46230 | 96 ft | 0 kts | 326° |
| 2026-05-07 16:17 | 51.47065 | -0.46234 | 94 ft | 2 kts | 326° |
| 2026-05-07 16:17 | 51.47088 | -0.46258 | 95 ft | 6 kts | 326° |
| 2026-05-07 16:18 | 51.47129 | -0.46304 | 98 ft | 9 kts | 326° |
| 2026-05-07 16:18 | 51.47192 | -0.46372 | 97 ft | 12 kts | 326° |
| 2026-05-07 16:18 | 51.47234 | -0.46460 | 98 ft | 11 kts | 283° |
| 2026-05-07 16:18 | 51.47239 | -0.46588 | 94 ft | 7 kts | 268° |
| 2026-05-07 16:19 | 51.47231 | -0.46679 | 98 ft | 9 kts | 242° |
| 2026-05-07 16:19 | 51.47227 | -0.46689 | 98 ft | 0 kts | 235° |
| 2026-05-07 16:19 | 51.47226 | -0.46720 | 98 ft | 5 kts | 278° |
| 2026-05-07 16:19 | 51.47231 | -0.46799 | 97 ft | 8 kts | 265° |
| 2026-05-07 16:20 | 51.47185 | -0.46859 | 97 ft | 11 kts | 189° |
| 2026-05-07 16:20 | 51.47098 | -0.46864 | 94 ft | 14 kts | 180° |
| 2026-05-07 16:20 | 51.46993 | -0.46863 | 94 ft | 17 kts | 180° |
| 2026-05-07 16:20 | 51.46888 | -0.46863 | 95 ft | 9 kts | 179° |
| 2026-05-07 16:21 | 51.46885 | -0.46863 | 95 ft | 0 kts | 179° |
| 2026-05-07 16:22 | 51.46878 | -0.46863 | 96 ft | 2 kts | 179° |
| 2026-05-07 16:22 | 51.46859 | -0.46862 | 97 ft | 4 kts | 179° |
| 2026-05-07 16:22 | 51.46849 | -0.46862 | 97 ft | 0 kts | 179° |
| 2026-05-07 16:23 | 51.46830 | -0.46862 | 97 ft | 7 kts | 179° |
| 2026-05-07 16:23 | 51.46774 | -0.46870 | 98 ft | 8 kts | 211° |
| 2026-05-07 16:23 | 51.46748 | -0.46975 | 98 ft | 12 kts | 265° |
| 2026-05-07 16:23 | 51.46747 | -0.47129 | 98 ft | 15 kts | 269° |
| 2026-05-07 16:24 | 51.46746 | -0.47313 | 98 ft | 18 kts | 269° |
| 2026-05-07 16:24 | 51.46746 | -0.47532 | 98 ft | 21 kts | 270° |
| 2026-05-07 16:24 | 51.46743 | -0.47774 | 94 ft | 20 kts | 269° |
| 2026-05-07 16:24 | 51.46743 | -0.47965 | 94 ft | 13 kts | 270° |
| 2026-05-07 16:25 | 51.46744 | -0.48065 | 94 ft | 6 kts | 270° |
| 2026-05-07 16:25 | 51.46743 | -0.48155 | 95 ft | 10 kts | 269° |
| 2026-05-07 16:25 | 51.46743 | -0.48253 | 95 ft | 8 kts | 269° |
| 2026-05-07 16:25 | 51.46742 | -0.48365 | 95 ft | 12 kts | 269° |
| 2026-05-07 16:26 | 51.46741 | -0.48511 | 94 ft | 14 kts | 269° |
| 2026-05-07 16:26 | 51.46741 | -0.48657 | 94 ft | 10 kts | 268° |
| 2026-05-07 16:26 | 51.46699 | -0.48738 | 98 ft | 11 kts | 191° |
| 2026-05-07 16:26 | 51.46644 | -0.48749 | 95 ft | 3 kts | 189° |
| 2026-05-07 16:27 | 51.46617 | -0.48759 | 98 ft | 3 kts | 194° |
| 2026-05-07 16:27 | 51.46616 | -0.48760 | 98 ft | 0 kts | 194° |
| 2026-05-07 16:27 | 51.46612 | -0.48761 | 98 ft | 3 kts | 195° |
| 2026-05-07 16:28 | 51.46577 | -0.48778 | 97 ft | 7 kts | 194° |
| 2026-05-07 16:28 | 51.46521 | -0.48776 | 97 ft | 9 kts | 157° |
| 2026-05-07 16:28 | 51.46480 | -0.48680 | 98 ft | 12 kts | 97° |
| 2026-05-07 16:28 | 51.46479 | -0.48651 | 97 ft | 1 kts | 91° |
| 2026-05-07 16:29 | 51.46480 | -0.48163 | 97 ft | 89 kts | 90° |
| 2026-05-07 16:29 | 51.46482 | -0.46723 | 103 ft | 164 kts | 88° |
| 2026-05-07 16:29 | 51.46525 | -0.44806 | 843 ft | 173 kts | 89° |
| 2026-05-07 16:29 | 51.46576 | -0.42832 | 1788 ft | 180 kts | 89° |
| 2026-05-07 16:30 | 51.46503 | -0.40827 | 2578 ft | 184 kts | 110° |
| 2026-05-07 16:30 | 51.45801 | -0.39067 | 3161 ft | 195 kts | 137° |
| 2026-05-07 16:30 | 51.44781 | -0.37520 | 3740 ft | 211 kts | 130° |
| 2026-05-07 16:30 | 51.43897 | -0.35523 | 4332 ft | 226 kts | 127° |
| 2026-05-07 16:31 | 51.42650 | -0.33869 | 4818 ft | 245 kts | 161° |
| 2026-05-07 16:31 | 51.40913 | -0.33509 | 5433 ft | 261 kts | 179° |
| 2026-05-07 16:31 | 51.39078 | -0.33521 | 5874 ft | 266 kts | 187° |
| 2026-05-07 16:31 | 51.37339 | -0.34517 | 6002 ft | 268 kts | 214° |
| 2026-05-07 16:32 | 51.35914 | -0.36445 | 6048 ft | 271 kts | 224° |
| 2026-05-07 16:32 | 51.34566 | -0.38587 | 6616 ft | 280 kts | 224° |
| 2026-05-07 16:32 | 51.33184 | -0.40740 | 7836 ft | 273 kts | 223° |
| 2026-05-07 16:32 | 51.31754 | -0.42710 | 8933 ft | 271 kts | 216° |
| 2026-05-07 16:33 | 51.30333 | -0.44703 | 9899 ft | 275 kts | 232° |
| 2026-05-07 16:33 | 51.29510 | -0.47499 | 10664 ft | 286 kts | 254° |
| 2026-05-07 16:33 | 51.29109 | -0.50703 | 11178 ft | 303 kts | 257° |
| 2026-05-07 16:33 | 51.28661 | -0.54170 | 11246 ft | 336 kts | 255° |
| 2026-05-07 16:34 | 51.28065 | -0.57964 | 11137 ft | 365 kts | 253° |
| 2026-05-07 16:34 | 51.27327 | -0.61974 | 11510 ft | 379 kts | 252° |
| 2026-05-07 16:34 | 51.26555 | -0.65965 | 11945 ft | 373 kts | 251° |
| 2026-05-07 16:34 | 51.25765 | -0.69932 | 12057 ft | 372 kts | 251° |
| 2026-05-07 16:35 | 51.24979 | -0.73862 | 12053 ft | 371 kts | 251° |
| 2026-05-07 16:35 | 51.24193 | -0.77786 | 12053 ft | 371 kts | 251° |
| 2026-05-07 16:35 | 51.23403 | -0.81725 | 12055 ft | 371 kts | 251° |
| 2026-05-07 16:35 | 51.22612 | -0.85650 | 12055 ft | 371 kts | 251° |
| 2026-05-07 16:36 | 51.21821 | -0.89574 | 12055 ft | 371 kts | 251° |
| 2026-05-07 16:36 | 51.21040 | -0.93452 | 12054 ft | 371 kts | 251° |
| 2026-05-07 16:36 | 51.20249 | -0.97372 | 12060 ft | 371 kts | 251° |
| 2026-05-07 16:36 | 51.19449 | -1.01312 | 12180 ft | 380 kts | 251° |
| 2026-05-07 16:37 | 51.18623 | -1.05373 | 13063 ft | 382 kts | 251° |
| 2026-05-07 16:37 | 51.17808 | -1.09393 | 14173 ft | 380 kts | 251° |
| 2026-05-07 16:37 | 51.16988 | -1.13434 | 14992 ft | 385 kts | 251° |
| 2026-05-07 16:37 | 51.16156 | -1.17496 | 15770 ft | 389 kts | 251° |
| 2026-05-07 16:38 | 51.15308 | -1.21598 | 16583 ft | 392 kts | 251° |
| 2026-05-07 16:38 | 51.14442 | -1.25754 | 17399 ft | 395 kts | 251° |
| 2026-05-07 16:38 | 51.13502 | -1.29895 | 18192 ft | 399 kts | 244° |
| 2026-05-07 16:38 | 51.11838 | -1.33431 | 18811 ft | 403 kts | 221° |
| 2026-05-07 16:39 | 51.09438 | -1.35747 | 19556 ft | 407 kts | 204° |
| 2026-05-07 16:39 | 51.06828 | -1.37435 | 20278 ft | 410 kts | 203° |
| 2026-05-07 16:39 | 51.04170 | -1.39166 | 20898 ft | 415 kts | 204° |
| 2026-05-07 16:39 | 51.01486 | -1.40949 | 21534 ft | 419 kts | 204° |
| 2026-05-07 16:40 | 50.98841 | -1.42735 | 22194 ft | 423 kts | 204° |
| 2026-05-07 16:40 | 50.96125 | -1.44584 | 22874 ft | 426 kts | 204° |
| 2026-05-07 16:40 | 50.93386 | -1.46458 | 23511 ft | 430 kts | 204° |
| 2026-05-07 16:40 | 50.90624 | -1.48353 | 24067 ft | 434 kts | 204° |
| 2026-05-07 16:41 | 50.87844 | -1.50261 | 24592 ft | 437 kts | 205° |
| 2026-05-07 16:41 | 50.85045 | -1.52184 | 25127 ft | 440 kts | 204° |
| 2026-05-07 16:41 | 50.82232 | -1.54116 | 25693 ft | 443 kts | 204° |
| 2026-05-07 16:41 | 50.79397 | -1.56059 | 26221 ft | 446 kts | 204° |
| 2026-05-07 16:42 | 50.76529 | -1.58022 | 26743 ft | 449 kts | 204° |
| 2026-05-07 16:42 | 50.73644 | -1.59995 | 27261 ft | 452 kts | 204° |
| 2026-05-07 16:42 | 50.70741 | -1.61978 | 27781 ft | 456 kts | 204° |
| 2026-05-07 16:42 | 50.67833 | -1.63961 | 28386 ft | 456 kts | 204° |
| 2026-05-07 16:43 | 50.64923 | -1.65943 | 29174 ft | 453 kts | 205° |
| 2026-05-07 16:43 | 50.62041 | -1.67905 | 29951 ft | 451 kts | 204° |
| 2026-05-07 16:43 | 50.59148 | -1.69872 | 30497 ft | 452 kts | 204° |
| 2026-05-07 16:43 | 50.56246 | -1.71841 | 30929 ft | 455 kts | 204° |
| 2026-05-07 16:44 | 50.53331 | -1.73816 | 31050 ft | 457 kts | 204° |
| 2026-05-07 16:44 | 50.47489 | -1.77767 | 31048 ft | 457 kts | 204° |
| 2026-05-07 16:45 | 50.41646 | -1.81708 | 31047 ft | 457 kts | 204° |
| 2026-05-07 16:45 | 50.38698 | -1.83696 | 31176 ft | 464 kts | 204° |
| 2026-05-07 16:45 | 50.35733 | -1.85691 | 31796 ft | 461 kts | 204° |
| 2026-05-07 16:45 | 50.32799 | -1.87659 | 32534 ft | 457 kts | 204° |
| 2026-05-07 16:46 | 50.29921 | -1.89587 | 32943 ft | 454 kts | 204° |
| 2026-05-07 16:46 | 50.24114 | -1.93471 | 33039 ft | 452 kts | 204° |
| 2026-05-07 16:47 | 50.18328 | -1.97334 | 33042 ft | 452 kts | 204° |
| 2026-05-07 16:47 | 50.12555 | -2.01179 | 33036 ft | 453 kts | 204° |
| 2026-05-07 16:48 | 50.06761 | -2.05026 | 33035 ft | 453 kts | 204° |
| 2026-05-07 16:48 | 50.01008 | -2.08832 | 33033 ft | 453 kts | 203° |
| 2026-05-07 16:49 | 49.95069 | -2.12135 | 33035 ft | 454 kts | 198° |
| 2026-05-07 16:49 | 49.89001 | -2.14951 | 33048 ft | 454 kts | 198° |
| 2026-05-07 16:50 | 49.82945 | -2.17784 | 33030 ft | 454 kts | 198° |
| 2026-05-07 16:50 | 49.76884 | -2.20609 | 33029 ft | 455 kts | 198° |
| 2026-05-07 16:51 | 49.70820 | -2.23426 | 33041 ft | 454 kts | 198° |
| 2026-05-07 16:51 | 49.64765 | -2.26233 | 33033 ft | 453 kts | 197° |
| 2026-05-07 16:52 | 49.58752 | -2.29009 | 33028 ft | 453 kts | 197° |
| 2026-05-07 16:52 | 49.52710 | -2.31790 | 33031 ft | 453 kts | 197° |
| 2026-05-07 16:53 | 49.46675 | -2.34563 | 33004 ft | 452 kts | 197° |
| 2026-05-07 16:53 | 49.40637 | -2.37329 | 33002 ft | 452 kts | 197° |
| 2026-05-07 16:54 | 49.34600 | -2.40087 | 33012 ft | 452 kts | 197° |
| 2026-05-07 16:54 | 49.28566 | -2.42837 | 33003 ft | 452 kts | 197° |
| 2026-05-07 16:55 | 49.22518 | -2.45585 | 33017 ft | 453 kts | 197° |
| 2026-05-07 16:55 | 49.16506 | -2.48312 | 33016 ft | 453 kts | 197° |
| 2026-05-07 16:56 | 49.10461 | -2.51048 | 33009 ft | 453 kts | 197° |
| 2026-05-07 16:56 | 49.01380 | -2.55138 | 32999 ft | 451 kts | 197° |
| 2026-05-07 16:57 | 48.95370 | -2.57842 | 32996 ft | 451 kts | 197° |
| 2026-05-07 16:57 | 48.89347 | -2.60545 | 33006 ft | 451 kts | 197° |
| 2026-05-07 16:58 | 48.83362 | -2.63223 | 33003 ft | 450 kts | 197° |
| 2026-05-07 16:58 | 48.77360 | -2.65901 | 32993 ft | 449 kts | 197° |
| 2026-05-07 16:59 | 48.71370 | -2.68567 | 32983 ft | 449 kts | 197° |
| 2026-05-07 16:59 | 48.65378 | -2.71226 | 32995 ft | 449 kts | 197° |
| 2026-05-07 17:00 | 48.60399 | -2.73432 | 32985 ft | 449 kts | 197° |
| 2026-05-07 17:00 | 48.54410 | -2.76079 | 32984 ft | 449 kts | 197° |
| 2026-05-07 17:01 | 48.48402 | -2.78728 | 32990 ft | 449 kts | 197° |
| 2026-05-07 17:01 | 48.42396 | -2.81369 | 32983 ft | 449 kts | 197° |
| 2026-05-07 17:02 | 48.36421 | -2.83991 | 32978 ft | 450 kts | 197° |
| 2026-05-07 17:02 | 48.30400 | -2.86625 | 32975 ft | 450 kts | 197° |
| 2026-05-07 17:03 | 48.24380 | -2.89253 | 32979 ft | 450 kts | 197° |
| 2026-05-07 17:03 | 48.18360 | -2.91874 | 32975 ft | 450 kts | 197° |
| 2026-05-07 17:04 | 48.12383 | -2.94473 | 32987 ft | 450 kts | 197° |
| 2026-05-07 17:04 | 48.06356 | -2.97083 | 32984 ft | 450 kts | 197° |
| 2026-05-07 17:05 | 48.00341 | -2.99684 | 32990 ft | 450 kts | 197° |
| 2026-05-07 17:05 | 47.94313 | -3.02283 | 32983 ft | 451 kts | 197° |
| 2026-05-07 17:06 | 47.88286 | -3.04875 | 32994 ft | 451 kts | 197° |
| 2026-05-07 17:06 | 47.82281 | -3.07452 | 32988 ft | 451 kts | 197° |
| 2026-05-07 17:07 | 47.76240 | -3.10038 | 32992 ft | 451 kts | 197° |
| 2026-05-07 17:07 | 47.70196 | -3.12619 | 33002 ft | 452 kts | 197° |
| 2026-05-07 17:08 | 47.64152 | -3.15194 | 32998 ft | 452 kts | 197° |
| 2026-05-07 17:08 | 47.58102 | -3.17766 | 33000 ft | 452 kts | 197° |
| 2026-05-07 17:09 | 47.52092 | -3.20314 | 32998 ft | 452 kts | 197° |
| 2026-05-07 17:09 | 47.46042 | -3.22873 | 32997 ft | 453 kts | 197° |
| 2026-05-07 17:10 | 47.39986 | -3.25428 | 33000 ft | 452 kts | 197° |
| 2026-05-07 17:10 | 47.33888 | -3.27995 | 32991 ft | 452 kts | 197° |
| 2026-05-07 17:11 | 47.27869 | -3.30522 | 32997 ft | 453 kts | 197° |
| 2026-05-07 17:11 | 47.21791 | -3.33067 | 33002 ft | 455 kts | 197° |
| 2026-05-07 17:12 | 47.15698 | -3.35615 | 32994 ft | 455 kts | 197° |
| 2026-05-07 17:12 | 47.09606 | -3.38155 | 33000 ft | 455 kts | 197° |
| 2026-05-07 17:13 | 47.03505 | -3.40694 | 32988 ft | 456 kts | 197° |
| 2026-05-07 17:13 | 46.97401 | -3.43228 | 32991 ft | 456 kts | 197° |
| 2026-05-07 17:14 | 46.91303 | -3.45752 | 32989 ft | 456 kts | 197° |
| 2026-05-07 17:14 | 46.85198 | -3.48274 | 32989 ft | 456 kts | 197° |
| 2026-05-07 17:15 | 46.79081 | -3.50795 | 32986 ft | 456 kts | 197° |
| 2026-05-07 17:15 | 46.72980 | -3.53305 | 32990 ft | 456 kts | 197° |
| 2026-05-07 17:16 | 46.66865 | -3.55813 | 32994 ft | 456 kts | 197° |
| 2026-05-07 17:16 | 46.60755 | -3.58314 | 32990 ft | 456 kts | 197° |
| 2026-05-07 17:17 | 46.54689 | -3.60791 | 32986 ft | 456 kts | 197° |
| 2026-05-07 17:17 | 46.48603 | -3.63269 | 32984 ft | 457 kts | 197° |
| 2026-05-07 17:18 | 46.42455 | -3.65770 | 32988 ft | 460 kts | 197° |
| 2026-05-07 17:18 | 46.36288 | -3.68256 | 32985 ft | 460 kts | 196° |
| 2026-05-07 17:19 | 46.30007 | -3.70133 | 32970 ft | 461 kts | 190° |
| 2026-05-07 17:19 | 46.23608 | -3.71185 | 32979 ft | 463 kts | 187° |
| 2026-05-07 17:20 | 46.17248 | -3.72134 | 32980 ft | 463 kts | 187° |
| 2026-05-07 17:20 | 46.10848 | -3.73091 | 32977 ft | 463 kts | 187° |
| 2026-05-07 17:21 | 46.04434 | -3.74046 | 32978 ft | 463 kts | 187° |
| 2026-05-07 17:21 | 45.98029 | -3.74996 | 32973 ft | 463 kts | 187° |
| 2026-05-07 17:22 | 45.91616 | -3.75945 | 32971 ft | 463 kts | 187° |
| 2026-05-07 17:22 | 45.85201 | -3.76890 | 32969 ft | 463 kts | 187° |
| 2026-05-07 17:23 | 45.78785 | -3.77835 | 32965 ft | 463 kts | 187° |
| 2026-05-07 17:23 | 45.72371 | -3.78777 | 32966 ft | 463 kts | 187° |
| 2026-05-07 17:24 | 45.65957 | -3.79716 | 32964 ft | 463 kts | 188° |
| 2026-05-07 17:24 | 45.59587 | -3.80648 | 32963 ft | 463 kts | 188° |
| 2026-05-07 17:25 | 45.53176 | -3.81584 | 32959 ft | 463 kts | 188° |
| 2026-05-07 17:25 | 45.46756 | -3.82516 | 32953 ft | 464 kts | 188° |
| 2026-05-07 17:26 | 45.40330 | -3.83450 | 32955 ft | 464 kts | 188° |
| 2026-05-07 17:26 | 45.33903 | -3.84381 | 32955 ft | 464 kts | 188° |
| 2026-05-07 17:27 | 45.27471 | -3.85309 | 32952 ft | 464 kts | 188° |
| 2026-05-07 17:27 | 45.21043 | -3.86237 | 32944 ft | 466 kts | 188° |
| 2026-05-07 17:28 | 45.14557 | -3.87171 | 32947 ft | 470 kts | 188° |
| 2026-05-07 17:28 | 45.08041 | -3.88106 | 32936 ft | 470 kts | 188° |
| 2026-05-07 17:29 | 45.01585 | -3.89031 | 32938 ft | 470 kts | 188° |
| 2026-05-07 17:29 | 44.95078 | -3.89962 | 32937 ft | 470 kts | 188° |
| 2026-05-07 17:30 | 44.88566 | -3.90889 | 32940 ft | 470 kts | 188° |
| 2026-05-07 17:30 | 44.82045 | -3.91818 | 32941 ft | 470 kts | 188° |
| 2026-05-07 17:31 | 44.75535 | -3.92743 | 32933 ft | 470 kts | 188° |
| 2026-05-07 17:31 | 44.69020 | -3.93667 | 32936 ft | 470 kts | 188° |
| 2026-05-07 17:32 | 44.62550 | -3.94582 | 32942 ft | 470 kts | 188° |
| 2026-05-07 17:32 | 44.57092 | -3.95352 | 32927 ft | 470 kts | 188° |
| 2026-05-07 17:33 | 44.49527 | -3.96416 | 32925 ft | 470 kts | 188° |
| 2026-05-07 17:33 | 44.43019 | -3.97334 | 32923 ft | 470 kts | 188° |
| 2026-05-07 17:34 | 44.36500 | -3.98212 | 32918 ft | 471 kts | 187° |
| 2026-05-07 17:34 | 44.29928 | -3.98399 | 32912 ft | 473 kts | 181° |
| 2026-05-07 17:35 | 44.23334 | -3.97802 | 32914 ft | 474 kts | 179° |
| 2026-05-07 17:35 | 44.16746 | -3.97157 | 32910 ft | 474 kts | 179° |
| 2026-05-07 17:36 | 44.10194 | -3.96518 | 32906 ft | 475 kts | 179° |
| 2026-05-07 17:36 | 44.03596 | -3.95878 | 32904 ft | 475 kts | 179° |
| 2026-05-07 17:37 | 43.97009 | -3.95240 | 32901 ft | 475 kts | 179° |
| 2026-05-07 17:37 | 43.90395 | -3.94599 | 32897 ft | 478 kts | 179° |
| 2026-05-07 17:38 | 43.83752 | -3.93962 | 32897 ft | 479 kts | 179° |
| 2026-05-07 17:38 | 43.77097 | -3.93321 | 32899 ft | 479 kts | 179° |
| 2026-05-07 17:39 | 43.70444 | -3.92676 | 32896 ft | 480 kts | 179° |
| 2026-05-07 17:39 | 43.63777 | -3.92034 | 32899 ft | 480 kts | 179° |
| 2026-05-07 17:40 | 43.57147 | -3.91400 | 32900 ft | 480 kts | 179° |
| 2026-05-07 17:40 | 43.50461 | -3.90763 | 32894 ft | 482 kts | 180° |
| 2026-05-07 17:41 | 43.43764 | -3.90609 | 32897 ft | 480 kts | 185° |
| 2026-05-07 17:41 | 43.37130 | -3.91385 | 32898 ft | 478 kts | 189° |
| 2026-05-07 17:42 | 43.30512 | -3.92379 | 32896 ft | 479 kts | 189° |
| 2026-05-07 17:42 | 43.23877 | -3.93364 | 32898 ft | 479 kts | 189° |
| 2026-05-07 17:43 | 43.17243 | -3.94344 | 32906 ft | 479 kts | 189° |
| 2026-05-07 17:43 | 43.10665 | -3.95312 | 32906 ft | 479 kts | 189° |
| 2026-05-07 17:44 | 43.04032 | -3.96291 | 32917 ft | 479 kts | 190° |
| 2026-05-07 17:44 | 42.97403 | -3.97267 | 32922 ft | 479 kts | 189° |
| 2026-05-07 17:45 | 42.90781 | -3.98230 | 32926 ft | 478 kts | 190° |
| 2026-05-07 17:45 | 42.85269 | -3.99033 | 32926 ft | 478 kts | 190° |
| 2026-05-07 17:46 | 42.78644 | -3.99998 | 32933 ft | 478 kts | 190° |
| 2026-05-07 17:46 | 42.72022 | -4.00963 | 32934 ft | 479 kts | 190° |
| 2026-05-07 17:47 | 42.65400 | -4.01927 | 32936 ft | 479 kts | 190° |
| 2026-05-07 17:47 | 42.58776 | -4.02888 | 32939 ft | 479 kts | 190° |
| 2026-05-07 17:48 | 42.52143 | -4.03839 | 32921 ft | 479 kts | 190° |
| 2026-05-07 17:48 | 42.45493 | -4.04793 | 32937 ft | 480 kts | 191° |
| 2026-05-07 17:49 | 42.38831 | -4.05754 | 32932 ft | 481 kts | 191° |
| 2026-05-07 17:49 | 42.32212 | -4.06706 | 32922 ft | 481 kts | 191° |
| 2026-05-07 17:50 | 42.25547 | -4.07661 | 32933 ft | 481 kts | 191° |
| 2026-05-07 17:50 | 42.18883 | -4.08617 | 32929 ft | 481 kts | 191° |
| 2026-05-07 17:51 | 42.12271 | -4.09563 | 32922 ft | 481 kts | 191° |
| 2026-05-07 17:51 | 42.05583 | -4.10513 | 32934 ft | 482 kts | 191° |
| 2026-05-07 17:52 | 41.98891 | -4.11399 | 32931 ft | 483 kts | 190° |
| 2026-05-07 17:52 | 41.92183 | -4.12143 | 32927 ft | 484 kts | 190° |
| 2026-05-07 17:53 | 41.85458 | -4.12885 | 32924 ft | 485 kts | 191° |
| 2026-05-07 17:53 | 41.78772 | -4.13644 | 32928 ft | 485 kts | 191° |
| 2026-05-07 17:54 | 41.72038 | -4.14410 | 32926 ft | 485 kts | 191° |
| 2026-05-07 17:54 | 41.65292 | -4.15169 | 32915 ft | 487 kts | 191° |
| 2026-05-07 17:55 | 41.58528 | -4.15940 | 32926 ft | 488 kts | 191° |
| 2026-05-07 17:55 | 41.51768 | -4.16707 | 32928 ft | 488 kts | 191° |
| 2026-05-07 17:56 | 41.44997 | -4.17461 | 32914 ft | 489 kts | 192° |
| 2026-05-07 17:56 | 41.38215 | -4.18231 | 32926 ft | 489 kts | 192° |
| 2026-05-07 17:57 | 41.32571 | -4.18870 | 32923 ft | 489 kts | 192° |
| 2026-05-07 17:57 | 41.28109 | -4.19327 | 32806 ft | 483 kts | 188° |
| 2026-05-07 17:57 | 41.24753 | -4.18774 | 32273 ft | 490 kts | 168° |
| 2026-05-07 17:58 | 41.21699 | -4.16768 | 31779 ft | 489 kts | 146° |
| 2026-05-07 17:58 | 41.19368 | -4.13580 | 31377 ft | 479 kts | 124° |
| 2026-05-07 17:58 | 41.17694 | -4.09805 | 30869 ft | 468 kts | 120° |
| 2026-05-07 17:58 | 41.16063 | -4.06098 | 30161 ft | 462 kts | 121° |
| 2026-05-07 17:59 | 41.14332 | -4.02535 | 29368 ft | 454 kts | 133° |
| 2026-05-07 17:59 | 41.12039 | -3.99855 | 28634 ft | 438 kts | 153° |
| 2026-05-07 17:59 | 41.09312 | -3.98156 | 28040 ft | 418 kts | 168° |
| 2026-05-07 17:59 | 41.06565 | -3.97444 | 27408 ft | 400 kts | 182° |
| 2026-05-07 18:00 | 41.03850 | -3.97573 | 26712 ft | 384 kts | 195° |
| 2026-05-07 18:00 | 41.01291 | -3.98469 | 26034 ft | 369 kts | 207° |
| 2026-05-07 18:00 | 40.98933 | -3.99733 | 25394 ft | 362 kts | 207° |
| 2026-05-07 18:00 | 40.96655 | -4.00996 | 24735 ft | 358 kts | 207° |
| 2026-05-07 18:01 | 40.94366 | -4.02247 | 24086 ft | 353 kts | 206° |
| 2026-05-07 18:01 | 40.92106 | -4.03462 | 23442 ft | 349 kts | 205° |
| 2026-05-07 18:01 | 40.89865 | -4.04648 | 22694 ft | 344 kts | 204° |
| 2026-05-07 18:01 | 40.87657 | -4.05810 | 21978 ft | 340 kts | 204° |
| 2026-05-07 18:02 | 40.83318 | -4.08132 | 20564 ft | 332 kts | 204° |
| 2026-05-07 18:02 | 40.81192 | -4.09277 | 19910 ft | 327 kts | 204° |
| 2026-05-07 18:02 | 40.79098 | -4.10414 | 19269 ft | 323 kts | 204° |
| 2026-05-07 18:03 | 40.77026 | -4.11553 | 18639 ft | 320 kts | 204° |
| 2026-05-07 18:03 | 40.74989 | -4.12680 | 17973 ft | 316 kts | 204° |
| 2026-05-07 18:03 | 40.73003 | -4.13783 | 17268 ft | 311 kts | 204° |
| 2026-05-07 18:03 | 40.71023 | -4.14888 | 16593 ft | 308 kts | 204° |
| 2026-05-07 18:04 | 40.69060 | -4.15994 | 15899 ft | 305 kts | 204° |
| 2026-05-07 18:04 | 40.67121 | -4.17098 | 15242 ft | 302 kts | 204° |
| 2026-05-07 18:04 | 40.65195 | -4.18198 | 14629 ft | 298 kts | 204° |
| 2026-05-07 18:04 | 40.63304 | -4.19280 | 14021 ft | 295 kts | 204° |
| 2026-05-07 18:05 | 40.61437 | -4.20355 | 13366 ft | 292 kts | 204° |
| 2026-05-07 18:05 | 40.59583 | -4.21426 | 12655 ft | 289 kts | 204° |
| 2026-05-07 18:05 | 40.57746 | -4.22492 | 11978 ft | 287 kts | 204° |
| 2026-05-07 18:05 | 40.55928 | -4.23543 | 11359 ft | 283 kts | 204° |
| 2026-05-07 18:06 | 40.54135 | -4.24573 | 10754 ft | 279 kts | 204° |
| 2026-05-07 18:06 | 40.52360 | -4.25469 | 10195 ft | 277 kts | 190° |
| 2026-05-07 18:06 | 40.50453 | -4.25206 | 9994 ft | 282 kts | 159° |
| 2026-05-07 18:06 | 40.48805 | -4.23772 | 9990 ft | 290 kts | 135° |
| 2026-05-07 18:07 | 40.47690 | -4.21557 | 9971 ft | 289 kts | 120° |
| 2026-05-07 18:07 | 40.46784 | -4.19225 | 9789 ft | 286 kts | 120° |
| 2026-05-07 18:07 | 40.45873 | -4.16871 | 9657 ft | 291 kts | 120° |
| 2026-05-07 18:07 | 40.44938 | -4.14511 | 9524 ft | 290 kts | 120° |
| 2026-05-07 18:08 | 40.44003 | -4.12160 | 9394 ft | 290 kts | 119° |
| 2026-05-07 18:08 | 40.43067 | -4.09819 | 9258 ft | 289 kts | 120° |
| 2026-05-07 18:08 | 40.42128 | -4.07477 | 9126 ft | 288 kts | 120° |
| 2026-05-07 18:08 | 40.41190 | -4.05156 | 8995 ft | 287 kts | 120° |
| 2026-05-07 18:09 | 40.40251 | -4.02842 | 8846 ft | 286 kts | 120° |
| 2026-05-07 18:09 | 40.39310 | -4.00537 | 8725 ft | 286 kts | 120° |
| 2026-05-07 18:09 | 40.38376 | -3.98241 | 8582 ft | 285 kts | 120° |
| 2026-05-07 18:09 | 40.37439 | -3.95944 | 8470 ft | 284 kts | 120° |
| 2026-05-07 18:10 | 40.36520 | -3.93684 | 8341 ft | 284 kts | 120° |
| 2026-05-07 18:10 | 40.35589 | -3.91404 | 8207 ft | 283 kts | 121° |
| 2026-05-07 18:10 | 40.34659 | -3.89127 | 8076 ft | 282 kts | 120° |
| 2026-05-07 18:10 | 40.33730 | -3.86864 | 7965 ft | 282 kts | 120° |
| 2026-05-07 18:11 | 40.32801 | -3.84589 | 7830 ft | 281 kts | 120° |
| 2026-05-07 18:11 | 40.32191 | -3.83098 | 7747 ft | 280 kts | 120° |
| 2026-05-07 18:11 | 40.30958 | -3.80081 | 7571 ft | 280 kts | 120° |
| 2026-05-07 18:11 | 40.30036 | -3.77831 | 7435 ft | 280 kts | 120° |
| 2026-05-07 18:12 | 40.29117 | -3.75585 | 7325 ft | 279 kts | 120° |
| 2026-05-07 18:12 | 40.28191 | -3.73340 | 7195 ft | 279 kts | 120° |
| 2026-05-07 18:12 | 40.27276 | -3.71111 | 7069 ft | 277 kts | 120° |
| 2026-05-07 18:12 | 40.26359 | -3.68885 | 6958 ft | 277 kts | 120° |
| 2026-05-07 18:13 | 40.25458 | -3.66686 | 6820 ft | 276 kts | 120° |
| 2026-05-07 18:13 | 40.24550 | -3.64475 | 6710 ft | 275 kts | 120° |
| 2026-05-07 18:13 | 40.23642 | -3.62274 | 6581 ft | 274 kts | 120° |
| 2026-05-07 18:13 | 40.22736 | -3.60083 | 6448 ft | 273 kts | 120° |
| 2026-05-07 18:14 | 40.21830 | -3.57899 | 6304 ft | 272 kts | 120° |
| 2026-05-07 18:14 | 40.20931 | -3.55721 | 6132 ft | 272 kts | 119° |
| 2026-05-07 18:14 | 40.20035 | -3.53552 | 6035 ft | 265 kts | 119° |
| 2026-05-07 18:14 | 40.19188 | -3.51478 | 6033 ft | 251 kts | 120° |
| 2026-05-07 18:15 | 40.18383 | -3.49528 | 6026 ft | 236 kts | 121° |
| 2026-05-07 18:15 | 40.17633 | -3.47665 | 6012 ft | 230 kts | 112° |
| 2026-05-07 18:15 | 40.17510 | -3.45590 | 5975 ft | 237 kts | 75° |
| 2026-05-07 18:15 | 40.18386 | -3.43747 | 5643 ft | 244 kts | 44° |
| 2026-05-07 18:16 | 40.19713 | -3.42328 | 5276 ft | 247 kts | 39° |
| 2026-05-07 18:16 | 40.21113 | -3.41042 | 5026 ft | 245 kts | 32° |
| 2026-05-07 18:16 | 40.22610 | -3.39990 | 4797 ft | 242 kts | 28° |
| 2026-05-07 18:16 | 40.24100 | -3.38998 | 4559 ft | 238 kts | 29° |
| 2026-05-07 18:17 | 40.25630 | -3.38220 | 4296 ft | 238 kts | 4° |
| 2026-05-07 18:17 | 40.27240 | -3.38375 | 4129 ft | 233 kts | 352° |
| 2026-05-07 18:17 | 40.28819 | -3.38747 | 4007 ft | 226 kts | 346° |
| 2026-05-07 18:17 | 40.30262 | -3.39406 | 4008 ft | 213 kts | 333° |
| 2026-05-07 18:18 | 40.31494 | -3.40364 | 4015 ft | 198 kts | 325° |
| 2026-05-07 18:18 | 40.32585 | -3.41392 | 3992 ft | 191 kts | 322° |
| 2026-05-07 18:18 | 40.33628 | -3.42441 | 3989 ft | 183 kts | 321° |
| 2026-05-07 18:18 | 40.34631 | -3.43470 | 4005 ft | 190 kts | 321° |
| 2026-05-07 18:19 | 40.35677 | -3.44545 | 4010 ft | 190 kts | 323° |
| 2026-05-07 18:19 | 40.36717 | -3.45605 | 3999 ft | 189 kts | 322° |
| 2026-05-07 18:19 | 40.37757 | -3.46665 | 3990 ft | 190 kts | 323° |
| 2026-05-07 18:19 | 40.38794 | -3.47722 | 3833 ft | 185 kts | 323° |
| 2026-05-07 18:20 | 40.39791 | -3.48740 | 3568 ft | 176 kts | 323° |
| 2026-05-07 18:20 | 40.40750 | -3.49721 | 3335 ft | 174 kts | 323° |
| 2026-05-07 18:20 | 40.41707 | -3.50696 | 3118 ft | 173 kts | 323° |
| 2026-05-07 18:20 | 40.42647 | -3.51658 | 2870 ft | 168 kts | 324° |
| 2026-05-07 18:21 | 40.43549 | -3.52584 | 2668 ft | 163 kts | 324° |
| 2026-05-07 18:21 | 40.44425 | -3.53505 | 2432 ft | 159 kts | 323° |
| 2026-05-07 18:21 | 40.45305 | -3.54388 | 2243 ft | 158 kts | 323° |
| 2026-05-07 18:21 | 40.46173 | -3.55259 | 2061 ft | 157 kts | 324° |
| 2026-05-07 18:22 | 40.47001 | -3.56091 | 1991 ft | 130 kts | 322° |
| 2026-05-07 18:22 | 40.47399 | -3.56493 | 1992 ft | 88 kts | 322° |
| 2026-05-07 18:22 | 40.47816 | -3.56915 | 1991 ft | 42 kts | 321° |
| 2026-05-07 18:22 | 40.47959 | -3.57064 | 1991 ft | 22 kts | 321° |
| 2026-05-07 18:23 | 40.48080 | -3.57195 | 1991 ft | 23 kts | 316° |
| 2026-05-07 18:23 | 40.48155 | -3.57369 | 1991 ft | 18 kts | 291° |
| 2026-05-07 18:23 | 40.48150 | -3.57483 | 1992 ft | 11 kts | 202° |
| 2026-05-07 18:23 | 40.48069 | -3.57448 | 1991 ft | 14 kts | 143° |
| 2026-05-07 18:24 | 40.47983 | -3.57360 | 1991 ft | 16 kts | 142° |
| 2026-05-07 18:24 | 40.47930 | -3.57305 | 1991 ft | 6 kts | 142° |
| 2026-05-07 18:24 | 40.47887 | -3.57261 | 1992 ft | 9 kts | 142° |
| 2026-05-07 18:24 | 40.47827 | -3.57200 | 1992 ft | 12 kts | 142° |
| 2026-05-07 18:25 | 40.47751 | -3.57124 | 1991 ft | 15 kts | 143° |
| 2026-05-07 18:25 | 40.47681 | -3.57068 | 1990 ft | 0 kts | 173° |
| 2026-05-07 18:25 | 40.47675 | -3.57068 | 1991 ft | 2 kts | 178° |
| 2026-05-07 18:25 | 40.47653 | -3.57072 | 1992 ft | 5 kts | 198° |
| 2026-05-07 18:26 | 40.47647 | -3.57075 | 1992 ft | 0 kts | 202° |
| 2026-05-07 18:26 | 40.47641 | -3.57078 | 1991 ft | 2 kts | 201° |
| 2026-05-07 18:26 | 40.47618 | -3.57083 | 1991 ft | 5 kts | 179° |
| 2026-05-07 18:26 | 40.47577 | -3.57067 | 1993 ft | 8 kts | 149° |
| 2026-05-07 18:27 | 40.47526 | -3.57016 | 1991 ft | 10 kts | 142° |
| 2026-05-07 18:27 | 40.47470 | -3.56960 | 1991 ft | 10 kts | 142° |
| 2026-05-07 18:27 | 40.47433 | -3.56922 | 1991 ft | 0 kts | 142° |
| 2026-05-07 18:27 | 40.47430 | -3.56919 | 1991 ft | 2 kts | 142° |
| 2026-05-07 18:28 | 40.47402 | -3.56890 | 1991 ft | 6 kts | 142° |
| 2026-05-07 18:28 | 40.47370 | -3.56851 | 1991 ft | 0 kts | 121° |
| 2026-05-07 18:29 | 40.47367 | -3.56836 | 1991 ft | 4 kts | 91° |
| 2026-05-07 18:29 | 40.47393 | -3.56799 | 1991 ft | 7 kts | 8° |
| 2026-05-07 18:29 | 40.47435 | -3.56813 | 1991 ft | 6 kts | 332° |
| 2026-05-07 18:29 | 40.47474 | -3.56846 | 1991 ft | 8 kts | 325° |
| 2026-05-07 18:30 | 40.47527 | -3.56898 | 1993 ft | 11 kts | 322° |
| 2026-05-07 18:30 | 40.47629 | -3.57001 | 1991 ft | 22 kts | 322° |
| 2026-05-07 18:30 | 40.47728 | -3.57102 | 1991 ft | 14 kts | 322° |
| 2026-05-07 18:30 | 40.47771 | -3.57147 | 1991 ft | 13 kts | 321° |
| 2026-05-07 18:31 | 40.47876 | -3.57254 | 1992 ft | 16 kts | 322° |
| 2026-05-07 18:31 | 40.47905 | -3.57372 | 1992 ft | 11 kts | 278° |
| 2026-05-07 18:31 | 40.47959 | -3.57456 | 1991 ft | 13 kts | 321° |
| 2026-05-07 18:31 | 40.48058 | -3.57557 | 1991 ft | 25 kts | 322° |
| 2026-05-07 18:32 | 40.48152 | -3.57651 | 1991 ft | 24 kts | 322° |
| 2026-05-07 18:32 | 40.48264 | -3.57766 | 1991 ft | 13 kts | 322° |
| 2026-05-07 18:32 | 40.48313 | -3.57816 | 1991 ft | 11 kts | 322° |
| 2026-05-07 18:32 | 40.48383 | -3.57882 | 1992 ft | 13 kts | 325° |
| 2026-05-07 18:33 | 40.48463 | -3.57952 | 1993 ft | 14 kts | 326° |
| 2026-05-07 18:33 | 40.48511 | -3.58062 | 1989 ft | 15 kts | 273° |
| 2026-05-07 18:33 | 40.48513 | -3.58213 | 1989 ft | 18 kts | 270° |
| 2026-05-07 18:33 | 40.48512 | -3.58389 | 1989 ft | 20 kts | 269° |
| 2026-05-07 18:34 | 40.48512 | -3.58515 | 1989 ft | 11 kts | 270° |
| 2026-05-07 18:34 | 40.48512 | -3.58621 | 1989 ft | 9 kts | 270° |
| 2026-05-07 18:34 | 40.48512 | -3.58718 | 1989 ft | 12 kts | 270° |
| 2026-05-07 18:34 | 40.48551 | -3.58810 | 1991 ft | 13 kts | 340° |
| 2026-05-07 18:35 | 40.48609 | -3.58842 | 1992 ft | 6 kts | 322° |
| 2026-05-07 18:35 | 40.48628 | -3.58894 | 1991 ft | 8 kts | 275° |
| 2026-05-07 18:35 | 40.48629 | -3.58922 | 1990 ft | 1 kts | 272° |
| 2026-05-07 18:35 | 40.48630 | -3.58948 | 1989 ft | 5 kts | 271° |